sensor_id;sensor_type;location;lat;lon;timestamp;temperature;humidity
33931;DHT22;20215;53.130;6.408;2023-02-12T00:01:14;13.40;80.20
33931;DHT22;20215;53.130;6.408;2023-02-12T00:03:40;13.40;80.00
33931;DHT22;20215;53.130;6.408;2023-02-12T00:06:06;13.40;80.10
33931;DHT22;20215;53.130;6.408;2023-02-12T00:08:31;13.40;80.00
33931;DHT22;20215;53.130;6.408;2023-02-12T00:10:57;13.40;79.80
33931;DHT22;20215;53.130;6.408;2023-02-12T00:13:22;13.40;80.10
33931;DHT22;20215;53.130;6.408;2023-02-12T00:15:48;13.40;80.20
33931;DHT22;20215;53.130;6.408;2023-02-12T00:18:13;13.40;80.20
33931;DHT22;20215;53.130;6.408;2023-02-12T00:20:39;13.40;79.90
33931;DHT22;20215;53.130;6.408;2023-02-12T00:23:05;13.40;80.10
33931;DHT22;20215;53.130;6.408;2023-02-12T00:25:30;13.40;79.90
33931;DHT22;20215;53.130;6.408;2023-02-12T00:27:56;13.40;80.00
33931;DHT22;20215;53.130;6.408;2023-02-12T00:30:21;13.40;80.10
33931;DHT22;20215;53.130;6.408;2023-02-12T00:32:47;13.40;80.10
33931;DHT22;20215;53.130;6.408;2023-02-12T00:35:12;13.50;79.90
33931;DHT22;20215;53.130;6.408;2023-02-12T00:37:38;13.40;79.70
33931;DHT22;20215;53.130;6.408;2023-02-12T00:40:04;13.40;79.90
33931;DHT22;20215;53.130;6.408;2023-02-12T00:42:30;13.40;79.80
33931;DHT22;20215;53.130;6.408;2023-02-12T00:44:55;13.40;79.90
33931;DHT22;20215;53.130;6.408;2023-02-12T00:47:21;13.40;79.90
33931;DHT22;20215;53.130;6.408;2023-02-12T00:49:46;13.40;79.90
33931;DHT22;20215;53.130;6.408;2023-02-12T00:52:11;13.40;80.10
33931;DHT22;20215;53.130;6.408;2023-02-12T00:54:37;13.40;80.00
33931;DHT22;20215;53.130;6.408;2023-02-12T00:57:02;13.30;80.10
33931;DHT22;20215;53.130;6.408;2023-02-12T00:59:28;13.30;80.20
33931;DHT22;20215;53.130;6.408;2023-02-12T01:01:54;13.30;80.10
33931;DHT22;20215;53.130;6.408;2023-02-12T01:04:20;13.30;80.10
33931;DHT22;20215;53.130;6.408;2023-02-12T01:06:46;13.30;80.30
33931;DHT22;20215;53.130;6.408;2023-02-12T01:09:11;13.40;80.10
33931;DHT22;20215;53.130;6.408;2023-02-12T01:11:37;13.30;79.90
33931;DHT22;20215;53.130;6.408;2023-02-12T01:14:03;13.40;80.10
33931;DHT22;20215;53.130;6.408;2023-02-12T01:16:28;13.30;79.90
33931;DHT22;20215;53.130;6.408;2023-02-12T01:18:56;13.40;80.20
33931;DHT22;20215;53.130;6.408;2023-02-12T01:21:22;13.40;80.00
33931;DHT22;20215;53.130;6.408;2023-02-12T01:23:48;13.40;79.90
33931;DHT22;20215;53.130;6.408;2023-02-12T01:26:14;13.30;79.80
33931;DHT22;20215;53.130;6.408;2023-02-12T01:28:41;13.40;80.50
33931;DHT22;20215;53.130;6.408;2023-02-12T01:31:14;13.30;79.80
33931;DHT22;20215;53.130;6.408;2023-02-12T01:33:40;13.40;80.10
33931;DHT22;20215;53.130;6.408;2023-02-12T01:36:06;13.30;79.90
33931;DHT22;20215;53.130;6.408;2023-02-12T01:38:31;13.40;80.00
33931;DHT22;20215;53.130;6.408;2023-02-12T01:41:04;13.30;80.00
33931;DHT22;20215;53.130;6.408;2023-02-12T01:43:32;13.30;79.90
33931;DHT22;20215;53.130;6.408;2023-02-12T01:45:58;13.30;79.90
33931;DHT22;20215;53.130;6.408;2023-02-12T01:48:24;13.30;80.10
33931;DHT22;20215;53.130;6.408;2023-02-12T01:50:51;13.30;80.10
33931;DHT22;20215;53.130;6.408;2023-02-12T01:53:17;13.30;80.00
33931;DHT22;20215;53.130;6.408;2023-02-12T01:55:54;13.30;80.20
33931;DHT22;20215;53.130;6.408;2023-02-12T01:58:22;13.30;80.40
33931;DHT22;20215;53.130;6.408;2023-02-12T02:00:48;13.30;80.30
33931;DHT22;20215;53.130;6.408;2023-02-12T02:03:14;13.30;80.00
33931;DHT22;20215;53.130;6.408;2023-02-12T02:06:15;13.30;80.20
33931;DHT22;20215;53.130;6.408;2023-02-12T02:08:32;13.30;80.00
33931;DHT22;20215;53.130;6.408;2023-02-12T02:10:58;13.30;80.00
33931;DHT22;20215;53.130;6.408;2023-02-12T02:13:23;13.30;79.90
33931;DHT22;20215;53.130;6.408;2023-02-12T02:16:25;13.30;80.00
33931;DHT22;20215;53.130;6.408;2023-02-12T02:18:53;13.30;79.80
33931;DHT22;20215;53.130;6.408;2023-02-12T02:31:41;13.30;80.20
33931;DHT22;20215;53.130;6.408;2023-02-12T02:34:14;13.30;79.90
33931;DHT22;20215;53.130;6.408;2023-02-12T02:39:35;13.30;80.20
33931;DHT22;20215;53.130;6.408;2023-02-12T02:42:06;13.30;80.00
33931;DHT22;20215;53.130;6.408;2023-02-12T02:44:38;13.20;80.00
33931;DHT22;20215;53.130;6.408;2023-02-12T02:47:06;13.30;80.20
33931;DHT22;20215;53.130;6.408;2023-02-12T02:49:35;13.30;80.10
33931;DHT22;20215;53.130;6.408;2023-02-12T02:52:04;13.30;80.20
33931;DHT22;20215;53.130;6.408;2023-02-12T02:57:03;13.30;80.20
33931;DHT22;20215;53.130;6.408;2023-02-12T02:59:31;13.30;80.10
33931;DHT22;20215;53.130;6.408;2023-02-12T03:02:00;13.30;80.00
33931;DHT22;20215;53.130;6.408;2023-02-12T03:04:29;13.30;80.10
33931;DHT22;20215;53.130;6.408;2023-02-12T03:09:49;13.30;80.10
33931;DHT22;20215;53.130;6.408;2023-02-12T03:12:24;13.30;80.20
33931;DHT22;20215;53.130;6.408;2023-02-12T03:14:53;13.30;80.10
33931;DHT22;20215;53.130;6.408;2023-02-12T03:17:26;13.30;80.20
33931;DHT22;20215;53.130;6.408;2023-02-12T03:19:54;13.30;80.10
33931;DHT22;20215;53.130;6.408;2023-02-12T03:22:22;13.30;80.10
33931;DHT22;20215;53.130;6.408;2023-02-12T03:24:55;13.30;80.00
33931;DHT22;20215;53.130;6.408;2023-02-12T03:27:27;13.30;80.00
33931;DHT22;20215;53.130;6.408;2023-02-12T03:29:54;13.20;80.10
33931;DHT22;20215;53.130;6.408;2023-02-12T03:32:27;13.30;80.00
33931;DHT22;20215;53.130;6.408;2023-02-12T03:37:33;13.20;80.20
33931;DHT22;20215;53.130;6.408;2023-02-12T03:42:37;13.20;80.30
33931;DHT22;20215;53.130;6.408;2023-02-12T03:52:35;13.20;80.50
33931;DHT22;20215;53.130;6.408;2023-02-12T03:55:01;13.30;80.30
33931;DHT22;20215;53.130;6.408;2023-02-12T03:57:28;13.30;80.40
33931;DHT22;20215;53.130;6.408;2023-02-12T03:59:58;13.30;80.30
33931;DHT22;20215;53.130;6.408;2023-02-12T04:02:26;13.30;80.30
33931;DHT22;20215;53.130;6.408;2023-02-12T04:04:52;13.30;80.40
33931;DHT22;20215;53.130;6.408;2023-02-12T04:07:17;13.30;80.20
33931;DHT22;20215;53.130;6.408;2023-02-12T04:09:43;13.20;80.10
33931;DHT22;20215;53.130;6.408;2023-02-12T04:12:37;13.30;80.60
33931;DHT22;20215;53.130;6.408;2023-02-12T04:15:06;13.20;80.50
33931;DHT22;20215;53.130;6.408;2023-02-12T04:20:10;13.30;80.30
33931;DHT22;20215;53.130;6.408;2023-02-12T04:22:53;13.30;80.40
33931;DHT22;20215;53.130;6.408;2023-02-12T04:25:20;13.20;80.40
33931;DHT22;20215;53.130;6.408;2023-02-12T04:27:48;13.30;80.50
33931;DHT22;20215;53.130;6.408;2023-02-12T04:32:44;13.30;80.90
33931;DHT22;20215;53.130;6.408;2023-02-12T04:35:29;13.40;80.70
33931;DHT22;20215;53.130;6.408;2023-02-12T04:40:33;13.40;81.10
33931;DHT22;20215;53.130;6.408;2023-02-12T04:42:59;13.50;80.90
33931;DHT22;20215;53.130;6.408;2023-02-12T04:45:25;13.50;81.00
33931;DHT22;20215;53.130;6.408;2023-02-12T04:47:51;13.60;81.20
33931;DHT22;20215;53.130;6.408;2023-02-12T04:50:17;13.60;81.30
33931;DHT22;20215;53.130;6.408;2023-02-12T04:52:43;13.70;81.30
33931;DHT22;20215;53.130;6.408;2023-02-12T04:55:08;13.70;81.10
33931;DHT22;20215;53.130;6.408;2023-02-12T04:57:34;13.80;81.40
33931;DHT22;20215;53.130;6.408;2023-02-12T04:59:59;13.80;81.30
33931;DHT22;20215;53.130;6.408;2023-02-12T05:02:25;13.90;81.00
33931;DHT22;20215;53.130;6.408;2023-02-12T05:04:50;14.00;80.90
33931;DHT22;20215;53.130;6.408;2023-02-12T05:07:16;14.00;81.00
33931;DHT22;20215;53.130;6.408;2023-02-12T05:09:41;14.00;81.20
33931;DHT22;20215;53.130;6.408;2023-02-12T05:12:07;14.10;81.00
33931;DHT22;20215;53.130;6.408;2023-02-12T05:14:33;14.10;81.20
33931;DHT22;20215;53.130;6.408;2023-02-12T05:16:58;14.20;81.00
33931;DHT22;20215;53.130;6.408;2023-02-12T05:19:24;14.20;81.00
33931;DHT22;20215;53.130;6.408;2023-02-12T05:21:51;14.20;80.60
33931;DHT22;20215;53.130;6.408;2023-02-12T05:24:16;14.20;80.70
33931;DHT22;20215;53.130;6.408;2023-02-12T05:26:42;14.20;80.70
33931;DHT22;20215;53.130;6.408;2023-02-12T05:29:08;14.30;80.90
33931;DHT22;20215;53.130;6.408;2023-02-12T05:31:33;14.30;81.00
33931;DHT22;20215;53.130;6.408;2023-02-12T05:33:59;14.30;81.30
33931;DHT22;20215;53.130;6.408;2023-02-12T05:36:24;14.30;80.50
33931;DHT22;20215;53.130;6.408;2023-02-12T05:38:50;14.30;80.40
33931;DHT22;20215;53.130;6.408;2023-02-12T05:41:20;14.30;80.60
33931;DHT22;20215;53.130;6.408;2023-02-12T05:43:46;14.30;80.40
33931;DHT22;20215;53.130;6.408;2023-02-12T05:46:12;14.30;80.80
33931;DHT22;20215;53.130;6.408;2023-02-12T05:48:38;14.30;80.30
33931;DHT22;20215;53.130;6.408;2023-02-12T05:51:05;14.30;80.40
33931;DHT22;20215;53.130;6.408;2023-02-12T05:53:31;14.30;80.40
33931;DHT22;20215;53.130;6.408;2023-02-12T05:56:07;14.30;79.90
33931;DHT22;20215;53.130;6.408;2023-02-12T05:58:32;14.30;80.60
33931;DHT22;20215;53.130;6.408;2023-02-12T06:00:58;14.30;80.20
33931;DHT22;20215;53.130;6.408;2023-02-12T06:03:23;14.30;80.30
33931;DHT22;20215;53.130;6.408;2023-02-12T06:05:49;14.30;80.00
33931;DHT22;20215;53.130;6.408;2023-02-12T06:08:15;14.30;80.30
33931;DHT22;20215;53.130;6.408;2023-02-12T06:10:40;14.40;80.00
33931;DHT22;20215;53.130;6.408;2023-02-12T06:13:06;14.40;79.60
33931;DHT22;20215;53.130;6.408;2023-02-12T06:15:31;14.30;80.30
33931;DHT22;20215;53.130;6.408;2023-02-12T06:17:57;14.40;79.90
33931;DHT22;20215;53.130;6.408;2023-02-12T06:20:22;14.40;79.60
33931;DHT22;20215;53.130;6.408;2023-02-12T06:22:48;14.40;80.10
33931;DHT22;20215;53.130;6.408;2023-02-12T06:25:13;14.30;79.70
33931;DHT22;20215;53.130;6.408;2023-02-12T06:27:39;14.40;79.90
33931;DHT22;20215;53.130;6.408;2023-02-12T06:30:04;14.40;80.20
33931;DHT22;20215;53.130;6.408;2023-02-12T06:32:30;14.40;79.90
33931;DHT22;20215;53.130;6.408;2023-02-12T06:34:56;14.40;79.90
33931;DHT22;20215;53.130;6.408;2023-02-12T06:37:21;14.40;80.20
33931;DHT22;20215;53.130;6.408;2023-02-12T06:39:46;14.50;79.50
33931;DHT22;20215;53.130;6.408;2023-02-12T06:42:12;14.50;79.20
33931;DHT22;20215;53.130;6.408;2023-02-12T06:44:37;14.50;79.00
33931;DHT22;20215;53.130;6.408;2023-02-12T06:47:03;14.50;79.20
33931;DHT22;20215;53.130;6.408;2023-02-12T06:49:28;14.60;79.80
33931;DHT22;20215;53.130;6.408;2023-02-12T06:51:54;14.50;79.00
33931;DHT22;20215;53.130;6.408;2023-02-12T06:54:19;14.60;79.00
33931;DHT22;20215;53.130;6.408;2023-02-12T06:56:45;14.60;80.30
33931;DHT22;20215;53.130;6.408;2023-02-12T06:59:12;14.60;78.80
33931;DHT22;20215;53.130;6.408;2023-02-12T07:01:38;14.60;79.40
33931;DHT22;20215;53.130;6.408;2023-02-12T07:04:04;14.60;79.80
33931;DHT22;20215;53.130;6.408;2023-02-12T07:06:30;14.60;78.60
33931;DHT22;20215;53.130;6.408;2023-02-12T07:08:56;14.60;78.90
